Time;durP1;ratioP1;P1;durP2;ratioP2;P2;SDS_P1;SDS_P2;PMS_P1;PMS_P2;Temp;Humidity;BMP_temperature;BMP_pressure;BME280_temperature;BME280_humidity;BME280_pressure;Samples;Min_cycle;Max_cycle;Signal;HPM_P1;HPM_P2
2020/12/17 00:00:54;;;;;;;;;;;26.70;90.00;;;;;;4915286;29;19907;-80
2020/12/17 00:03:21;;;;;;;;;;;26.80;90.00;;;;;;4924340;29;20013;-80
2020/12/17 00:05:48;;;;;;;;;;;27.00;88.10;;;;;;4934491;29;19938;-80
2020/12/17 00:08:18;;;;;;;;;;;27.00;88.90;;;;;;4932885;29;19965;-81
2020/12/17 00:10:45;;;;;;;;;;;27.20;87.70;;;;;;4915828;29;19907;-81
2020/12/17 00:13:12;;;;;;;;;;;27.20;87.80;;;;;;4916212;29;19906;-81
2020/12/17 00:15:38;;;;;;;;;;;27.30;85.20;;;;;;4925129;29;19997;-81
2020/12/17 00:18:05;;;;;;;;;;;27.50;86.30;;;;;;4934142;29;20277;-85
2020/12/17 00:20:32;;;;;;;;;;;27.60;84.10;;;;;;4928314;29;19914;-81
2020/12/17 00:22:58;;;;;;;;;;;27.70;84.00;;;;;;4915735;29;19907;-81
2020/12/17 00:25:25;;;;;;;;;;;27.60;83.80;;;;;;4898694;29;19966;-82
2020/12/17 00:27:52;;;;;;;;;;;27.80;84.90;;;;;;4915284;29;19946;-81
2020/12/17 00:30:18;;;;;;;;;;;28.00;84.80;;;;;;4922257;29;19911;-80
2020/12/17 00:32:45;;;;;;;;;;;28.10;84.00;;;;;;4934875;29;19907;-80
2020/12/17 00:35:13;;;;;;;;;;;28.10;81.90;;;;;;4929294;29;19918;-80
2020/12/17 00:37:39;;;;;;;;;;;28.00;80.70;;;;;;4914850;29;20228;-81
2020/12/17 00:40:08;;;;;;;;;;;28.30;80.20;;;;;;4917082;29;19934;-81
2020/12/17 00:42:38;;;;;;;;;;;28.80;78.00;;;;;;4916831;29;20377;-80
2020/12/17 00:45:04;;;;;;;;;;;28.90;78.00;;;;;;4918119;29;19915;-80
2020/12/17 00:47:31;;;;;;;;;;;29.00;77.40;;;;;;4920646;29;19958;-80
2020/12/17 00:49:58;;;;;;;;;;;29.80;75.60;;;;;;4918658;29;20353;-80
2020/12/17 00:52:25;;;;;;;;;;;30.10;74.00;;;;;;4919035;29;19911;-81
2020/12/17 00:54:52;;;;;;;;;;;30.50;72.30;;;;;;4919310;29;19907;-84
2020/12/17 00:57:26;;;;;;;;;;;30.70;70.60;;;;;;4918285;29;19908;-81
2020/12/17 00:59:53;;;;;;;;;;;31.00;69.30;;;;;;4919454;29;19938;-81
2020/12/17 01:02:20;;;;;;;;;;;31.10;70.90;;;;;;4917642;29;19919;-82
2020/12/17 01:04:48;;;;;;;;;;;30.80;70.60;;;;;;4931603;29;19947;-81
2020/12/17 01:07:16;;;;;;;;;;;31.00;70.80;;;;;;4929656;29;19917;-82
2020/12/17 01:09:42;;;;;;;;;;;31.10;69.70;;;;;;4918787;29;19914;-81
2020/12/17 01:12:10;;;;;;;;;;;30.90;69.10;;;;;;4918973;29;20389;-81
2020/12/17 01:14:37;;;;;;;;;;;30.90;69.70;;;;;;4901793;29;19908;-81
2020/12/17 01:17:05;;;;;;;;;;;30.70;68.20;;;;;;4918851;29;19966;-81
2020/12/17 01:19:32;;;;;;;;;;;30.50;71.90;;;;;;4918900;29;19910;-82
2020/12/17 01:21:58;;;;;;;;;;;30.30;73.00;;;;;;4918509;29;19978;-84
2020/12/17 01:24:25;;;;;;;;;;;30.40;73.20;;;;;;4918440;29;19983;-82
2020/12/17 01:26:55;;;;;;;;;;;30.30;74.60;;;;;;4918031;29;20384;-82
2020/12/17 01:29:23;;;;;;;;;;;30.40;73.80;;;;;;4918413;29;19958;-82
2020/12/17 01:31:49;;;;;;;;;;;30.20;74.60;;;;;;4917426;29;19993;-82
2020/12/17 01:34:16;;;;;;;;;;;30.60;72.80;;;;;;4918517;29;19915;-82
2020/12/17 01:36:43;;;;;;;;;;;30.90;72.40;;;;;;4917439;29;19911;-82
2020/12/17 01:39:09;;;;;;;;;;;30.40;73.70;;;;;;4918473;29;19907;-84
2020/12/17 01:41:36;;;;;;;;;;;29.90;75.50;;;;;;4918598;29;20441;-81
2020/12/17 01:44:03;;;;;;;;;;;29.70;77.30;;;;;;4918037;29;19915;-82
2020/12/17 01:46:30;;;;;;;;;;;29.90;75.90;;;;;;4917934;29;19927;-82
2020/12/17 01:48:59;;;;;;;;;;;29.70;75.90;;;;;;4918228;29;19907;-82
2020/12/17 01:51:25;;;;;;;;;;;29.30;77.70;;;;;;4918873;29;19994;-82
2020/12/17 01:53:54;;;;;;;;;;;29.00;78.80;;;;;;4918851;29;19969;-81
2020/12/17 01:56:20;;;;;;;;;;;28.70;80.30;;;;;;4917717;29;19966;-81
2020/12/17 01:59:07;;;;;;;;;;;28.40;80.70;;;;;;4917545;29;19943;-82
2020/12/17 02:01:34;;;;;;;;;;;28.20;81.60;;;;;;4917670;29;19911;-81
2020/12/17 02:04:01;;;;;;;;;;;28.10;83.30;;;;;;4918562;29;19938;-81
2020/12/17 02:06:28;;;;;;;;;;;28.20;83.00;;;;;;4918427;29;20097;-82
2020/12/17 02:08:55;;;;;;;;;;;28.30;81.80;;;;;;4918043;29;19967;-82
2020/12/17 02:11:21;;;;;;;;;;;28.20;82.00;;;;;;4918632;29;19907;-83
2020/12/17 02:13:48;;;;;;;;;;;28.10;82.90;;;;;;4918536;29;19943;-82
2020/12/17 02:16:15;;;;;;;;;;;27.90;82.40;;;;;;4901481;29;19935;-83
2020/12/17 02:18:43;;;;;;;;;;;27.80;83.40;;;;;;4917475;29;19911;-83
2020/12/17 02:21:10;;;;;;;;;;;27.70;84.10;;;;;;4917917;29;20378;-82
2020/12/17 02:23:39;;;;;;;;;;;27.60;84.80;;;;;;4898931;29;19915;-83
2020/12/17 02:26:06;;;;;;;;;;;27.60;84.90;;;;;;4907327;29;19950;-80
2020/12/17 02:28:33;;;;;;;;;;;27.70;84.20;;;;;;4903490;29;19979;-82
2020/12/17 02:31:00;;;;;;;;;;;27.90;84.60;;;;;;4917999;29;19950;-81
2020/12/17 02:33:27;;;;;;;;;;;28.20;83.10;;;;;;4918171;29;19994;-82
2020/12/17 02:35:54;;;;;;;;;;;28.20;83.30;;;;;;4917975;29;19935;-81
2020/12/17 02:38:20;;;;;;;;;;;28.30;82.40;;;;;;4917833;29;19949;-82
2020/12/17 02:40:47;;;;;;;;;;;28.20;83.10;;;;;;4917472;29;19915;-81
2020/12/17 02:43:14;;;;;;;;;;;28.00;83.90;;;;;;4918073;29;19913;-82
2020/12/17 02:45:45;;;;;;;;;;;27.80;84.60;;;;;;4918391;29;19919;-83
2020/12/17 02:48:11;;;;;;;;;;;28.00;84.30;;;;;;4900548;29;19914;-84
2020/12/17 02:50:38;;;;;;;;;;;28.10;83.00;;;;;;4918860;29;20005;-84
2020/12/17 02:53:07;;;;;;;;;;;28.10;83.60;;;;;;4917889;29;19930;-84
2020/12/17 02:55:33;;;;;;;;;;;28.10;83.00;;;;;;4917790;29;19915;-82
2020/12/17 02:58:00;;;;;;;;;;;27.90;82.90;;;;;;4917618;29;19914;-82
2020/12/17 03:00:27;;;;;;;;;;;27.80;84.10;;;;;;4917016;29;19907;-83
2020/12/17 03:02:53;;;;;;;;;;;27.80;83.50;;;;;;4917316;29;19919;-82
2020/12/17 03:11:26;;;;;;;;;;;28.00;83.30;;;;;;4157343;29;19933;-79
2020/12/17 03:13:53;;;;;;;;;;;28.10;83.20;;;;;;4922504;29;19917;-85
2020/12/17 03:16:20;;;;;;;;;;;28.20;83.20;;;;;;4937471;29;19907;-85
2020/12/17 03:18:47;;;;;;;;;;;28.00;82.40;;;;;;4937007;29;19907;-85
2020/12/17 03:21:15;;;;;;;;;;;28.00;83.10;;;;;;4931393;29;19950;-83
2020/12/17 03:23:42;;;;;;;;;;;27.90;82.80;;;;;;4929352;29;19978;-84
2020/12/17 03:26:08;;;;;;;;;;;27.80;83.50;;;;;;4936517;29;20041;-84
2020/12/17 03:28:35;;;;;;;;;;;27.70;84.10;;;;;;4933161;29;20357;-86
2020/12/17 03:31:02;;;;;;;;;;;27.50;83.90;;;;;;4929369;29;19907;-84
2020/12/17 03:33:28;;;;;;;;;;;27.60;83.40;;;;;;4935964;29;19970;-83
2020/12/17 03:35:56;;;;;;;;;;;27.70;84.30;;;;;;4932122;29;19934;-87
2020/12/17 03:38:23;;;;;;;;;;;27.80;82.60;;;;;;4935564;29;19910;-85
2020/12/17 03:40:50;;;;;;;;;;;27.70;84.10;;;;;;4934181;29;19918;-85
2020/12/17 03:43:17;;;;;;;;;;;27.70;84.30;;;;;;4936688;29;19954;-84
2020/12/17 03:45:44;;;;;;;;;;;27.80;83.70;;;;;;4934246;29;19925;-88
2020/12/17 03:48:10;;;;;;;;;;;28.00;84.20;;;;;;4936053;29;19966;-86
2020/12/17 03:50:37;;;;;;;;;;;28.00;83.10;;;;;;4936588;29;19942;-85
2020/12/17 03:53:04;;;;;;;;;;;28.20;82.80;;;;;;4925821;29;19911;-84
2020/12/17 03:55:30;;;;;;;;;;;28.00;82.50;;;;;;4931998;29;20289;-83
2020/12/17 03:57:57;;;;;;;;;;;28.00;82.60;;;;;;4941047;29;19914;-84
2020/12/17 04:00:25;;;;;;;;;;;28.10;82.30;;;;;;4934792;29;19918;-87
2020/12/17 04:02:52;;;;;;;;;;;28.10;81.40;;;;;;4936994;29;19910;-85
2020/12/17 04:05:18;;;;;;;;;;;28.00;83.00;;;;;;4932714;29;19923;-84
2020/12/17 04:07:45;;;;;;;;;;;27.90;83.40;;;;;;4938324;29;19950;-84
2020/12/17 04:10:12;;;;;;;;;;;27.90;83.10;;;;;;4935615;29;20548;-82
2020/12/17 04:12:38;;;;;;;;;;;27.90;83.10;;;;;;4932751;29;19926;-81
2020/12/17 04:15:05;;;;;;;;;;;27.80;83.10;;;;;;4944486;29;20073;-88
2020/12/17 04:17:33;;;;;;;;;;;28.00;83.30;;;;;;4936529;29;19914;-81
2020/12/17 04:19:59;;;;;;;;;;;28.10;82.70;;;;;;4933232;29;19913;-84
2020/12/17 04:22:26;;;;;;;;;;;28.20;81.90;;;;;;4916908;29;19910;-83
2020/12/17 04:24:53;;;;;;;;;;;28.10;81.00;;;;;;4943573;29;19922;-84
2020/12/17 04:27:20;;;;;;;;;;;27.90;82.20;;;;;;4953949;29;20013;-91
2020/12/17 04:29:48;;;;;;;;;;;27.90;82.30;;;;;;4950143;29;20288;-84
2020/12/17 04:32:14;;;;;;;;;;;27.80;82.20;;;;;;4925096;29;20261;-85
2020/12/17 04:34:41;;;;;;;;;;;27.80;82.80;;;;;;4914631;29;20261;-82
2020/12/17 04:37:08;;;;;;;;;;;28.00;81.90;;;;;;4907526;29;20297;-83
2020/12/17 04:39:34;;;;;;;;;;;27.90;81.70;;;;;;4911939;29;20293;-83
2020/12/17 04:42:02;;;;;;;;;;;27.70;82.30;;;;;;4921192;29;20012;-83
2020/12/17 04:44:28;;;;;;;;;;;27.70;82.10;;;;;;4912767;29;19982;-82
2020/12/17 04:46:56;;;;;;;;;;;27.70;82.70;;;;;;4919828;29;19911;-82
2020/12/17 04:49:31;;;;;;;;;;;27.60;82.60;;;;;;4924143;29;20254;-87
2020/12/17 04:51:57;;;;;;;;;;;27.50;83.60;;;;;;4923957;29;19921;-83
2020/12/17 04:54:25;;;;;;;;;;;27.40;83.70;;;;;;4946800;29;19928;-88
2020/12/17 04:57:17;;;;;;;;;;;27.30;82.80;;;;;;4942496;29;20348;-86
2020/12/17 04:59:46;;;;;;;;;;;27.30;84.00;;;;;;4930036;29;19929;-84
2020/12/17 05:02:13;;;;;;;;;;;27.20;84.50;;;;;;4941868;29;19980;-85
2020/12/17 05:04:45;;;;;;;;;;;27.10;84.30;;;;;;4930602;29;19981;-85
2020/12/17 05:07:13;;;;;;;;;;;27.00;84.40;;;;;;4947573;29;19911;-83
2020/12/17 05:09:42;;;;;;;;;;;26.80;85.10;;;;;;4940678;29;19915;-83
2020/12/17 05:12:11;;;;;;;;;;;26.60;86.00;;;;;;4935630;29;19919;-84
2020/12/17 05:14:40;;;;;;;;;;;26.40;86.80;;;;;;4937191;29;19914;-88
2020/12/17 05:17:07;;;;;;;;;;;26.40;87.30;;;;;;4934477;29;19997;-91
2020/12/17 05:19:33;;;;;;;;;;;26.40;86.80;;;;;;4920272;29;19929;-84
2020/12/17 05:22:10;;;;;;;;;;;26.50;86.70;;;;;;4933752;29;19911;-87
2020/12/17 05:24:37;;;;;;;;;;;26.50;87.10;;;;;;4927974;29;20447;-89
2020/12/17 05:27:05;;;;;;;;;;;26.60;86.40;;;;;;4943238;29;19917;-85
2020/12/17 05:29:31;;;;;;;;;;;26.80;86.30;;;;;;4939417;29;19942;-87
2020/12/17 05:31:58;;;;;;;;;;;26.90;85.60;;;;;;4947377;29;19914;-84
2020/12/17 05:34:26;;;;;;;;;;;26.90;85.70;;;;;;4930658;29;19910;-86
2020/12/17 05:36:54;;;;;;;;;;;27.00;86.00;;;;;;4937580;29;20108;-85
2020/12/17 05:39:21;;;;;;;;;;;27.00;84.80;;;;;;4934212;29;19911;-82
2020/12/17 05:41:51;;;;;;;;;;;26.80;84.90;;;;;;4919206;29;19997;-88
2020/12/17 05:44:19;;;;;;;;;;;26.70;86.10;;;;;;4926765;29;20381;-90
2020/12/17 05:46:49;;;;;;;;;;;26.80;85.60;;;;;;4940987;29;19935;-83
2020/12/17 05:49:20;;;;;;;;;;;26.80;85.70;;;;;;4936300;29;19907;-86
2020/12/17 05:51:47;;;;;;;;;;;26.90;85.40;;;;;;4913898;29;19911;-81
2020/12/17 05:54:21;;;;;;;;;;;27.00;84.90;;;;;;4916377;29;20517;-80
2020/12/17 05:56:49;;;;;;;;;;;26.90;85.40;;;;;;4915255;29;19910;-86
2020/12/17 05:59:25;;;;;;;;;;;26.90;85.50;;;;;;4920520;29;19910;-81
2020/12/17 06:01:52;;;;;;;;;;;26.90;85.10;;;;;;4935016;29;19915;-83
2020/12/17 06:04:19;;;;;;;;;;;27.00;85.40;;;;;;4925092;29;19926;-84
2020/12/17 06:06:47;;;;;;;;;;;27.00;85.00;;;;;;4921231;29;20290;-83
2020/12/17 06:09:23;;;;;;;;;;;27.00;84.50;;;;;;4931073;29;20556;-83
2020/12/17 06:11:50;;;;;;;;;;;27.00;84.70;;;;;;4935200;29;19929;-82
2020/12/17 06:14:19;;;;;;;;;;;27.00;83.90;;;;;;4934973;29;19914;-82
2020/12/17 06:16:49;;;;;;;;;;;26.90;83.60;;;;;;4934826;29;19907;-82
2020/12/17 06:19:20;;;;;;;;;;;27.10;84.60;;;;;;4936300;29;19930;-91
2020/12/17 06:21:47;;;;;;;;;;;27.20;83.00;;;;;;4940897;29;20298;-86
2020/12/17 06:24:16;;;;;;;;;;;27.20;83.30;;;;;;4914586;29;19919;-84
2020/12/17 06:26:49;;;;;;;;;;;27.20;84.00;;;;;;4938094;29;19910;-82
2020/12/17 06:29:19;;;;;;;;;;;27.20;83.00;;;;;;4922233;29;19993;-81
2020/12/17 06:31:52;;;;;;;;;;;27.20;83.40;;;;;;4931222;29;20043;-85
2020/12/17 06:34:19;;;;;;;;;;;27.20;83.50;;;;;;4935567;29;19913;-81
2020/12/17 06:36:50;;;;;;;;;;;27.20;84.20;;;;;;4934915;29;19918;-87
2020/12/17 06:39:17;;;;;;;;;;;27.20;84.10;;;;;;4928782;29;19958;-82
2020/12/17 06:41:44;;;;;;;;;;;27.30;84.80;;;;;;4942527;29;19915;-83
2020/12/17 06:44:31;;;;;;;;;;;27.30;84.10;;;;;;4952145;29;19929;-87
2020/12/17 06:46:59;;;;;;;;;;;27.20;84.40;;;;;;4924106;29;20372;-82
2020/12/17 06:49:27;;;;;;;;;;;27.10;84.70;;;;;;4932898;29;20369;-82
2020/12/17 06:52:06;;;;;;;;;;;27.00;85.00;;;;;;4940093;29;20387;-80
2020/12/17 06:54:40;;;;;;;;;;;27.00;84.70;;;;;;4941893;29;19911;-82
2020/12/17 06:57:10;;;;;;;;;;;27.10;84.60;;;;;;4937199;29;19961;-84
2020/12/17 06:59:41;;;;;;;;;;;27.20;85.40;;;;;;4934363;29;19934;-81
2020/12/17 07:02:08;;;;;;;;;;;27.30;84.30;;;;;;4952262;29;19910;-80
2020/12/17 07:04:40;;;;;;;;;;;27.40;84.40;;;;;;4939371;29;20609;-81
2020/12/17 07:07:11;;;;;;;;;;;27.40;84.00;;;;;;4935786;29;19997;-81
2020/12/17 07:09:38;;;;;;;;;;;27.40;85.10;;;;;;4916129;29;20009;-80
2020/12/17 07:12:04;;;;;;;;;;;27.40;84.90;;;;;;4933471;29;19962;-81
2020/12/17 07:14:31;;;;;;;;;;;27.50;84.40;;;;;;4931485;29;19958;-83
2020/12/17 07:17:02;;;;;;;;;;;27.50;84.70;;;;;;4927289;29;19993;-83
2020/12/17 07:19:30;;;;;;;;;;;27.50;84.90;;;;;;4934007;29;19922;-81
2020/12/17 07:22:02;;;;;;;;;;;27.40;85.30;;;;;;4934682;29;19954;-82
2020/12/17 07:24:30;;;;;;;;;;;27.40;85.20;;;;;;4934174;29;20029;-82
2020/12/17 07:27:01;;;;;;;;;;;27.40;85.60;;;;;;4934592;29;19974;-89
2020/12/17 07:29:44;;;;;;;;;;;27.40;85.60;;;;;;4936385;29;19910;-85
2020/12/17 07:32:29;;;;;;;;;;;27.40;85.70;;;;;;4921207;29;19920;-82
2020/12/17 07:35:00;;;;;;;;;;;27.50;85.90;;;;;;4920791;29;19911;-80
2020/12/17 07:37:34;;;;;;;;;;;27.40;86.00;;;;;;4932993;29;19915;-81
2020/12/17 07:40:12;;;;;;;;;;;27.40;86.10;;;;;;4942272;29;20560;-83
2020/12/17 07:42:39;;;;;;;;;;;27.50;85.90;;;;;;4942759;29;19918;-81
2020/12/17 07:45:06;;;;;;;;;;;27.40;86.10;;;;;;4943319;29;19919;-81
2020/12/17 07:47:33;;;;;;;;;;;27.50;86.30;;;;;;4962713;29;19918;-79
2020/12/17 07:50:00;;;;;;;;;;;27.40;86.40;;;;;;4939992;29;19927;-80
2020/12/17 07:52:33;;;;;;;;;;;27.40;86.40;;;;;;4936834;29;19977;-85
2020/12/17 07:55:00;;;;;;;;;;;27.40;86.50;;;;;;4934740;29;20333;-82
2020/12/17 07:57:27;;;;;;;;;;;27.30;86.90;;;;;;4941106;29;19910;-84
2020/12/17 07:59:54;;;;;;;;;;;27.30;86.90;;;;;;4931829;29;19918;-85
2020/12/17 08:02:21;;;;;;;;;;;27.20;87.20;;;;;;4934168;29;19918;-85
2020/12/17 08:04:53;;;;;;;;;;;27.20;87.40;;;;;;4936954;29;19919;-86
2020/12/17 08:07:20;;;;;;;;;;;27.20;87.40;;;;;;4922635;29;19915;-85
2020/12/17 08:09:59;;;;;;;;;;;27.10;87.60;;;;;;4938975;29;20378;-88
2020/12/17 08:12:26;;;;;;;;;;;27.20;87.90;;;;;;4934219;29;19930;-88
2020/12/17 08:15:06;;;;;;;;;;;27.20;87.40;;;;;;4912338;29;19910;-86
2020/12/17 08:17:32;;;;;;;;;;;27.10;87.00;;;;;;4919982;29;20321;-87
2020/12/17 08:19:59;;;;;;;;;;;27.10;87.20;;;;;;4920119;29;20255;-89
2020/12/17 08:22:31;;;;;;;;;;;27.00;87.00;;;;;;4937207;29;19910;-88
2020/12/17 08:25:04;;;;;;;;;;;26.90;87.60;;;;;;4935097;29;19974;-88
2020/12/17 08:27:30;;;;;;;;;;;26.80;88.00;;;;;;4926270;29;19911;-89
2020/12/17 08:29:57;;;;;;;;;;;26.80;88.20;;;;;;4938933;29;20342;-88
2020/12/17 08:32:24;;;;;;;;;;;26.70;88.10;;;;;;4918452;29;19970;-89
2020/12/17 08:34:54;;;;;;;;;;;26.70;88.70;;;;;;4936444;29;19918;-88
2020/12/17 08:37:22;;;;;;;;;;;26.60;89.00;;;;;;4934096;29;19917;-87
2020/12/17 08:40:02;;;;;;;;;;;26.50;89.30;;;;;;4927291;29;19911;-89
2020/12/17 08:42:34;;;;;;;;;;;26.50;90.00;;;;;;4943458;29;20270;-89
2020/12/17 08:45:05;;;;;;;;;;;26.30;90.30;;;;;;4923820;29;20024;-90
2020/12/17 08:47:33;;;;;;;;;;;26.20;90.50;;;;;;4954816;29;19991;-89
2020/12/17 08:50:03;;;;;;;;;;;26.00;90.70;;;;;;4931302;29;20001;-90
2020/12/17 08:52:32;;;;;;;;;;;26.00;90.90;;;;;;4942531;29;20262;-89
2020/12/17 08:55:06;;;;;;;;;;;26.00;90.60;;;;;;4949888;29;20369;-91
2020/12/17 08:57:33;;;;;;;;;;;26.00;90.60;;;;;;4933659;29;19910;-89
2020/12/17 09:00:00;;;;;;;;;;;26.00;90.50;;;;;;4930657;29;19954;-90
2020/12/17 09:02:27;;;;;;;;;;;25.90;90.20;;;;;;4937322;29;20001;-90
2020/12/17 09:04:54;;;;;;;;;;;25.80;90.10;;;;;;4901873;29;19915;-90
2020/12/17 09:07:26;;;;;;;;;;;25.80;90.10;;;;;;4917517;29;19915;-88
2020/12/17 09:09:54;;;;;;;;;;;25.70;90.10;;;;;;4927697;29;20470;-89
2020/12/17 09:12:28;;;;;;;;;;;25.70;90.30;;;;;;4934050;29;20380;-89
2020/12/17 09:14:55;;;;;;;;;;;25.60;90.30;;;;;;4958505;29;20415;-89
2020/12/17 09:17:21;;;;;;;;;;;25.60;90.40;;;;;;4926476;29;19915;-90
2020/12/17 09:19:49;;;;;;;;;;;25.60;90.30;;;;;;4931492;29;19907;-86
2020/12/17 09:22:25;;;;;;;;;;;25.50;90.40;;;;;;4940594;29;19899;-86
2020/12/17 09:24:55;;;;;;;;;;;25.40;90.70;;;;;;4959664;28;19907;-88
2020/12/17 09:27:28;;;;;;;;;;;25.40;90.80;;;;;;4944974;29;19915;-88
2020/12/17 09:30:14;;;;;;;;;;;25.40;90.80;;;;;;4928212;29;19915;-91
2020/12/17 09:32:56;;;;;;;;;;;25.30;91.00;;;;;;4932754;29;20375;-90
2020/12/17 09:35:23;;;;;;;;;;;25.30;91.00;;;;;;4930942;29;19973;-91
2020/12/17 09:37:58;;;;;;;;;;;25.30;91.20;;;;;;4944136;29;19921;-90
2020/12/17 09:40:25;;;;;;;;;;;25.40;91.30;;;;;;4924613;29;20073;-89
2020/12/17 09:43:22;;;;;;;;;;;25.30;91.50;;;;;;4929302;29;19987;-89
2020/12/17 09:45:50;;;;;;;;;;;25.30;91.50;;;;;;4902466;29;19919;-90
2020/12/17 09:48:26;;;;;;;;;;;25.30;91.80;;;;;;4902968;29;20006;-89
2020/12/17 09:51:00;;;;;;;;;;;25.30;91.90;;;;;;4928110;29;20020;-91
2020/12/17 09:53:27;;;;;;;;;;;25.30;92.00;;;;;;4957569;29;20349;-90
2020/12/17 09:55:54;;;;;;;;;;;25.30;92.10;;;;;;4940640;29;19907;-91
2020/12/17 09:58:21;;;;;;;;;;;25.30;92.10;;;;;;4939951;29;19907;-90
2020/12/17 10:00:48;;;;;;;;;;;25.30;92.30;;;;;;4935496;29;19906;-89
2020/12/17 10:03:16;;;;;;;;;;;25.20;92.30;;;;;;4926854;29;19970;-87
2020/12/17 10:05:43;;;;;;;;;;;25.30;92.40;;;;;;4924010;29;19971;-87
2020/12/17 10:08:09;;;;;;;;;;;25.20;92.50;;;;;;4922996;29;19907;-88
2020/12/17 10:10:37;;;;;;;;;;;25.20;92.50;;;;;;4937600;29;19950;-88
2020/12/17 10:13:06;;;;;;;;;;;25.10;92.70;;;;;;4937667;29;19985;-86
2020/12/17 10:15:33;;;;;;;;;;;25.00;92.90;;;;;;4930930;29;20369;-86
2020/12/17 10:17:59;;;;;;;;;;;25.00;92.90;;;;;;4929547;29;19907;-89
2020/12/17 10:20:26;;;;;;;;;;;24.90;93.10;;;;;;4933089;29;20373;-88
2020/12/17 10:22:59;;;;;;;;;;;24.90;93.10;;;;;;4938506;29;19926;-89
2020/12/17 10:25:25;;;;;;;;;;;24.90;93.20;;;;;;4921469;29;19945;-88
2020/12/17 10:28:01;;;;;;;;;;;24.90;93.20;;;;;;4912813;29;20355;-85
2020/12/17 10:30:28;;;;;;;;;;;24.90;93.20;;;;;;4930071;29;19915;-85
2020/12/17 10:32:56;;;;;;;;;;;24.90;93.10;;;;;;4934806;29;19917;-88
2020/12/17 10:35:23;;;;;;;;;;;25.00;93.00;;;;;;4920375;29;19922;-87
2020/12/17 10:37:50;;;;;;;;;;;24.90;93.10;;;;;;4934161;29;20286;-89
2020/12/17 10:40:19;;;;;;;;;;;25.00;93.10;;;;;;4938526;29;19911;-88
2020/12/17 10:42:46;;;;;;;;;;;25.10;93.00;;;;;;4953821;29;20280;-87
2020/12/17 10:45:12;;;;;;;;;;;25.10;92.90;;;;;;4944592;29;19918;-88
2020/12/17 10:47:39;;;;;;;;;;;25.10;93.00;;;;;;4954523;29;19955;-90
2020/12/17 10:50:07;;;;;;;;;;;25.20;92.90;;;;;;4954003;29;19917;-88
2020/12/17 10:52:34;;;;;;;;;;;25.20;92.80;;;;;;4940078;29;20288;-83
2020/12/17 10:55:00;;;;;;;;;;;25.20;92.80;;;;;;4938321;29;19918;-87
2020/12/17 10:57:27;;;;;;;;;;;25.30;92.70;;;;;;4949294;29;19915;-88
2020/12/17 10:59:54;;;;;;;;;;;25.20;92.60;;;;;;4939085;29;19931;-86
2020/12/17 11:02:20;;;;;;;;;;;25.30;92.60;;;;;;4971467;29;19911;-87
2020/12/17 11:04:47;;;;;;;;;;;25.20;92.70;;;;;;4938402;29;19966;-89
2020/12/17 11:07:15;;;;;;;;;;;25.20;92.80;;;;;;4938446;29;20045;-86
2020/12/17 11:09:42;;;;;;;;;;;25.10;92.90;;;;;;4954604;29;19917;-88
2020/12/17 11:12:09;;;;;;;;;;;25.10;92.90;;;;;;4939968;29;19918;-91
2020/12/17 11:14:35;;;;;;;;;;;25.10;93.00;;;;;;4937163;29;20001;-87
2020/12/17 11:17:03;;;;;;;;;;;25.10;93.30;;;;;;4929032;29;19992;-88
2020/12/17 11:19:30;;;;;;;;;;;25.20;93.30;;;;;;4939614;29;19998;-87
2020/12/17 11:22:00;;;;;;;;;;;25.20;93.10;;;;;;4949505;29;19918;-91
2020/12/17 11:24:27;;;;;;;;;;;25.20;93.10;;;;;;4953011;29;19986;-86
2020/12/17 11:26:53;;;;;;;;;;;25.20;93.00;;;;;;4941481;29;19918;-86
2020/12/17 11:29:20;;;;;;;;;;;25.10;93.00;;;;;;4949013;29;19946;-89
2020/12/17 11:31:47;;;;;;;;;;;25.10;93.00;;;;;;4928489;29;19914;-88
2020/12/17 11:34:14;;;;;;;;;;;25.10;93.10;;;;;;4929487;29;19945;-87
2020/12/17 11:36:43;;;;;;;;;;;25.10;93.20;;;;;;4920072;29;19925;-87
2020/12/17 11:39:09;;;;;;;;;;;25.10;93.10;;;;;;4936346;29;19954;-86
2020/12/17 11:41:36;;;;;;;;;;;25.00;93.40;;;;;;4937193;29;19950;-85
2020/12/17 11:44:03;;;;;;;;;;;25.00;93.20;;;;;;4919869;29;19915;-86
2020/12/17 11:46:29;;;;;;;;;;;24.90;93.30;;;;;;4936916;29;20306;-87
2020/12/17 11:48:56;;;;;;;;;;;24.90;93.40;;;;;;4941863;29;20269;-87
2020/12/17 11:51:23;;;;;;;;;;;24.90;93.50;;;;;;4944711;29;19915;-87
2020/12/17 11:53:49;;;;;;;;;;;24.90;93.50;;;;;;4934358;29;19917;-88
2020/12/17 11:56:19;;;;;;;;;;;24.80;93.40;;;;;;4954308;29;19907;-90
2020/12/17 11:58:45;;;;;;;;;;;24.90;93.40;;;;;;4938924;29;19910;-92
2020/12/17 12:01:12;;;;;;;;;;;24.80;93.20;;;;;;4940256;29;20008;-86
2020/12/17 12:03:40;;;;;;;;;;;24.90;93.20;;;;;;4929812;29;19918;-84
2020/12/17 12:06:07;;;;;;;;;;;24.90;93.10;;;;;;4936172;29;20258;-85
2020/12/17 12:08:34;;;;;;;;;;;24.90;93.20;;;;;;4938464;29;19911;-86
2020/12/17 12:11:00;;;;;;;;;;;24.90;93.20;;;;;;4935375;29;19919;-85
2020/12/17 12:13:27;;;;;;;;;;;24.90;93.20;;;;;;4936229;29;19911;-85
2020/12/17 12:15:54;;;;;;;;;;;24.90;93.30;;;;;;4953881;29;20276;-85
2020/12/17 12:18:20;;;;;;;;;;;24.90;93.20;;;;;;4953753;29;19993;-85
2020/12/17 12:20:47;;;;;;;;;;;24.90;93.30;;;;;;4936378;29;19914;-85
2020/12/17 12:23:17;;;;;;;;;;;24.90;93.30;;;;;;4936339;29;19954;-85
2020/12/17 12:25:44;;;;;;;;;;;24.90;93.40;;;;;;4946886;29;19922;-85
2020/12/17 12:28:10;;;;;;;;;;;24.90;93.40;;;;;;4947365;29;19932;-86
2020/12/17 12:30:37;;;;;;;;;;;24.90;93.30;;;;;;4933566;29;19911;-85
2020/12/17 12:33:04;;;;;;;;;;;24.90;93.30;;;;;;4932495;29;19911;-85
2020/12/17 12:35:30;;;;;;;;;;;24.90;93.40;;;;;;4952736;29;20042;-85
2020/12/17 12:37:57;;;;;;;;;;;24.90;93.30;;;;;;4942121;29;19978;-85
2020/12/17 12:40:24;;;;;;;;;;;24.90;93.30;;;;;;4963571;28;19917;-85
2020/12/17 12:42:50;;;;;;;;;;;24.90;93.20;;;;;;4968224;29;19970;-86
2020/12/17 12:45:17;;;;;;;;;;;24.90;93.20;;;;;;4959090;29;19918;-85
2020/12/17 12:47:46;;;;;;;;;;;24.90;93.20;;;;;;4943181;29;19911;-85
2020/12/17 12:50:14;;;;;;;;;;;24.90;93.20;;;;;;4939746;29;20001;-85
2020/12/17 12:52:41;;;;;;;;;;;25.00;93.30;;;;;;4943011;29;20417;-84
2020/12/17 12:55:08;;;;;;;;;;;24.90;93.30;;;;;;4933311;29;19962;-85
2020/12/17 12:57:35;;;;;;;;;;;24.90;93.30;;;;;;4958767;29;20374;-85
2020/12/17 13:00:03;;;;;;;;;;;24.90;93.40;;;;;;4940524;29;19922;-85
2020/12/17 13:02:29;;;;;;;;;;;24.90;93.20;;;;;;4922040;29;19914;-85
2020/12/17 13:04:56;;;;;;;;;;;24.90;93.30;;;;;;4932480;29;20239;-85
2020/12/17 13:07:23;;;;;;;;;;;24.90;93.40;;;;;;4924414;29;20251;-85
2020/12/17 13:09:49;;;;;;;;;;;24.90;93.40;;;;;;4943672;29;19911;-85
2020/12/17 13:12:16;;;;;;;;;;;24.90;93.40;;;;;;4939354;29;19926;-85
2020/12/17 13:14:43;;;;;;;;;;;24.90;93.40;;;;;;4939328;29;19910;-85
2020/12/17 13:17:10;;;;;;;;;;;24.90;93.50;;;;;;4939342;29;20386;-85
2020/12/17 13:19:36;;;;;;;;;;;24.80;93.50;;;;;;4940590;29;19929;-85
2020/12/17 13:22:03;;;;;;;;;;;24.80;93.60;;;;;;4956705;29;20391;-85
2020/12/17 13:24:29;;;;;;;;;;;24.80;93.70;;;;;;4958064;29;20357;-85
2020/12/17 13:26:56;;;;;;;;;;;24.80;93.80;;;;;;4943345;29;19919;-85
2020/12/17 13:29:23;;;;;;;;;;;24.80;93.90;;;;;;4930927;29;20389;-86
2020/12/17 13:31:49;;;;;;;;;;;24.70;93.90;;;;;;4952468;29;19953;-85
2020/12/17 13:34:16;;;;;;;;;;;24.80;94.00;;;;;;4939288;29;19914;-85
2020/12/17 13:36:46;;;;;;;;;;;24.70;94.10;;;;;;4921958;29;19926;-86
2020/12/17 13:39:14;;;;;;;;;;;24.60;94.10;;;;;;4939893;29;20258;-85
2020/12/17 13:41:40;;;;;;;;;;;24.60;94.20;;;;;;4941641;29;20006;-85
2020/12/17 13:44:07;;;;;;;;;;;24.60;94.10;;;;;;4957990;29;20007;-85
2020/12/17 13:46:34;;;;;;;;;;;24.60;94.10;;;;;;4958060;29;19911;-86
2020/12/17 13:49:00;;;;;;;;;;;24.70;94.10;;;;;;4955661;29;19915;-85
2020/12/17 13:51:27;;;;;;;;;;;24.70;94.20;;;;;;4953026;28;19953;-85
2020/12/17 13:53:54;;;;;;;;;;;24.70;94.20;;;;;;4957854;29;20361;-85
2020/12/17 13:56:25;;;;;;;;;;;24.70;94.10;;;;;;4940801;29;19914;-85
2020/12/17 13:58:51;;;;;;;;;;;24.80;94.30;;;;;;4956085;29;19942;-85
2020/12/17 14:01:18;;;;;;;;;;;24.70;94.20;;;;;;4957449;29;19993;-85
2020/12/17 14:03:45;;;;;;;;;;;24.70;94.30;;;;;;4957503;29;19929;-84
2020/12/17 14:06:12;;;;;;;;;;;24.70;94.30;;;;;;4957623;29;19918;-85
2020/12/17 14:08:40;;;;;;;;;;;24.60;94.40;;;;;;4953551;29;20473;-86
2020/12/17 14:11:06;;;;;;;;;;;24.60;94.50;;;;;;4936756;29;19926;-86
2020/12/17 14:13:33;;;;;;;;;;;24.60;94.50;;;;;;4927681;29;19933;-85
2020/12/17 14:16:00;;;;;;;;;;;24.60;94.60;;;;;;4943218;29;19906;-86
2020/12/17 14:18:26;;;;;;;;;;;24.60;94.50;;;;;;4976100;29;19906;-84
2020/12/17 14:20:53;;;;;;;;;;;24.60;94.40;;;;;;4976688;29;19918;-85
2020/12/17 14:23:20;;;;;;;;;;;24.70;94.40;;;;;;4961719;29;19912;-85
2020/12/17 14:25:47;;;;;;;;;;;24.60;94.40;;;;;;4938285;29;20365;-85
2020/12/17 14:28:13;;;;;;;;;;;24.60;94.50;;;;;;4941454;29;20005;-85